Terminal Aerodrome Forecast
Issued by NWS

Home | Current Version | Previous Version | Text Only | Print | Product List | Glossary Off
Versions: 1 2 3 4 5 6 7 8 9 10 11 12 13 14 15 16 17 18

548
FTUS43 KGRB 231743
TAFCWA
TAF
KCWA 231743Z 2318/2418 18007KT P6SM SCT070 BKN100
      TEMPO 2320/2324 -SHRA BKN050
     FM240000 15007KT P6SM VCSH SCT040 BKN070
      TEMPO 2402/2406 1SM TSRA BKN025CB
     FM240600 17007KT 6SM SHRA BKN025 OVC040 WS020/21035KT
     FM240900 21008KT 5SM -SHRA BR OVC012 WS020/21035KT
     FM241500 26010G19KT P6SM SCT025 BKN050=

USA.gov is the U.S. government's official web portal to all federal, state and local government web resources and services.